Change the Weather History Date:

Tuesday, December 27, 2011

  Actual Average Record
Temperature  
Mean Temperature 29 °F -  
Max Temperature 37 °F 24 °F 50 °F (2003)
Min Temperature 21 °F 10 °F -4 °F (2000)
Degree Days  
Heating Degree Days 36    
Moisture  
Dew Point 21 °F    
Average Humidity 72    
Maximum Humidity 81    
Minimum Humidity 60    
Precipitation  
Precipitation 0.00 in - - ()
Sea Level Pressure  
Sea Level Pressure 29.92 in    
Wind  
Wind Speed 13 mph (NW)    
Max Wind Speed 29 mph    
Max Gust Speed 37 mph    
Visibility 10 miles    
Events      
Averages and records for this station are not official NWS values.
T = Trace of Precipitation, MM = Missing Value Source: NWS Daily Summary

Daily Weather History Graph

Daily Weather History Graph

Search for Another Location

Airport or City:

Trip Planner

Search our weather history database for the weather conditions in past years. The results will help you decide how hot, cold, wet, or windy it might be!

Date:

Astronomy

Dec. 27, 2011 Rise Set
Actual Time 7:47 AM CST 4:48 PM CST
Civil Twilight 7:15 AM CST 5:21 PM CST
Nautical Twilight 6:39 AM CST 5:56 PM CST
Astronomical Twilight 6:04 AM CST 6:31 PM CST
Moon 9:38 AM CST (12/27) 8:28 PM CST (12/27)
Length of Visible Light 10h 05m
Length of Day
9h 00m
Waxing Crescent, 11% of the Moon is Illuminated
Dec 27
Waxing Crescent
Jan 1
First Quarter
Jan 9
Full
Jan 16
Last Quarter
Jan 23
New

Hourly Weather History & Observations

Time (CST) Temp. Windchill Dew Point Humidity Pressure Visibility Wind Dir Wind Speed Gust Speed Precip Events Conditions
12:35 AM 37.4 °F 30.3 °F 26.6 °F 65% 29.78 in 10.0 mi West 10.4 mph - N/A   Unknown
12:55 AM 37.4 °F 30.3 °F 26.6 °F 65% 29.78 in 10.0 mi West 10.4 mph - N/A   Unknown
1:15 AM 35.6 °F 27.5 °F 26.6 °F 70% 29.77 in 10.0 mi West 11.5 mph - N/A   Unknown
1:35 AM 33.8 °F 25.3 °F 26.6 °F 75% 29.77 in 10.0 mi West 11.5 mph - N/A   Unknown
1:55 AM 33.8 °F 25.8 °F 26.6 °F 75% 29.77 in 10.0 mi WNW 10.4 mph - N/A   Unknown
2:15 AM 35.6 °F 27.5 °F 28.4 °F 75% 29.77 in 10.0 mi WNW 11.5 mph - N/A   Unknown
2:35 AM 35.6 °F 26.6 °F 28.4 °F 75% 29.78 in 10.0 mi WNW 13.8 mph - N/A   Unknown
2:55 AM 35.6 °F 27.1 °F 26.6 °F 70% 29.78 in 10.0 mi WNW 12.7 mph - N/A   Unknown
3:15 AM 35.6 °F 26.6 °F 26.6 °F 70% 29.78 in 10.0 mi WNW 13.8 mph 20.7 mph N/A   Unknown
3:35 AM 35.6 °F 26.6 °F 26.6 °F 70% 29.78 in 10.0 mi WNW 13.8 mph - N/A   Unknown
3:55 AM 35.6 °F 25.9 °F 26.6 °F 70% 29.79 in 10.0 mi WNW 16.1 mph - N/A   Unknown
4:15 AM 35.6 °F 25.2 °F 26.6 °F 70% 29.79 in 10.0 mi NW 18.4 mph 26.5 mph N/A   Unknown
4:35 AM 35.6 °F 25.2 °F 26.6 °F 70% 29.79 in 10.0 mi NW 18.4 mph 21.9 mph N/A   Unknown
4:55 AM 35.6 °F 25.9 °F 28.4 °F 75% 29.80 in 10.0 mi NW 16.1 mph 23.0 mph N/A   Unknown
5:15 AM 37.4 °F 26.4 °F 30.2 °F 75% 29.81 in 10.0 mi NNW 23.0 mph 27.6 mph N/A   Unknown
5:35 AM 37.4 °F 27.5 °F 30.2 °F 75% 29.81 in 10.0 mi NW 18.4 mph 26.5 mph N/A   Unknown
6:15 AM 35.6 °F 24.8 °F 28.4 °F 75% 29.83 in 10.0 mi NNW 19.6 mph 27.6 mph N/A   Unknown
6:35 AM 33.8 °F 23.5 °F 28.4 °F 81% 29.84 in 10.0 mi NW 16.1 mph 20.7 mph N/A   Unknown
6:55 AM 33.8 °F 22.8 °F 26.6 °F 75% 29.85 in 10.0 mi NNW 18.4 mph 26.5 mph N/A   Unknown
7:15 AM 33.8 °F 21.6 °F 26.6 °F 75% 29.85 in 10.0 mi NW 23.0 mph 27.6 mph N/A   Unknown
7:35 AM 33.8 °F 23.2 °F 26.6 °F 75% 29.86 in 10.0 mi NNW 17.3 mph 24.2 mph N/A   Unknown
8:15 AM 32.0 °F 21.2 °F 24.8 °F 75% 29.87 in 10.0 mi NW 16.1 mph 23.0 mph N/A   Unknown
8:35 AM 32.0 °F 19.8 °F 23.0 °F 69% 29.88 in 10.0 mi NNW 20.7 mph 26.5 mph N/A   Unknown
8:55 AM 30.2 °F 16.5 °F 21.2 °F 69% 29.90 in 10.0 mi NNW 24.2 mph 32.2 mph N/A   Unknown
9:15 AM 28.4 °F 13.0 °F 21.2 °F 74% 29.91 in 10.0 mi North 28.8 mph 36.8 mph N/A   Unknown
9:35 AM 26.6 °F 11.7 °F 19.4 °F 74% 29.92 in 10.0 mi NNW 24.2 mph 32.2 mph N/A   Unknown
9:55 AM 24.8 °F 10.0 °F 19.4 °F 80% 29.94 in 10.0 mi NNW 21.9 mph 28.8 mph N/A   Unknown
10:15 AM 26.6 °F 13.4 °F 19.4 °F 74% 29.95 in 10.0 mi NNW 18.4 mph 31.1 mph N/A   Unknown
10:35 AM 26.6 °F 11.4 °F 19.4 °F 74% 29.94 in 10.0 mi North 25.3 mph 31.1 mph N/A   Unknown
10:55 AM 26.6 °F 12.0 °F 19.4 °F 74% 29.95 in 10.0 mi NNW 23.0 mph 28.8 mph N/A   Unknown
11:15 AM 26.6 °F 12.0 °F 19.4 °F 74% 29.95 in 10.0 mi North 23.0 mph 29.9 mph N/A   Unknown
11:35 AM 26.6 °F 13.1 °F 19.4 °F 74% 29.95 in 10.0 mi NNW 19.6 mph 27.6 mph N/A   Unknown
12:15 PM 26.6 °F 12.4 °F 19.4 °F 74% 29.93 in 10.0 mi North 21.9 mph - N/A   Unknown
12:55 PM 28.4 °F 16.2 °F 19.4 °F 69% 29.94 in 10.0 mi NW 17.3 mph 23.0 mph N/A   Unknown
1:15 PM 28.4 °F 16.2 °F 19.4 °F 69% 29.95 in 10.0 mi NNW 17.3 mph - N/A   Unknown
1:35 PM 30.2 °F 18.9 °F 19.4 °F 64% 29.95 in 10.0 mi NW 16.1 mph - N/A   Unknown
1:55 PM 30.2 °F 18.5 °F 19.4 °F 64% 29.96 in 10.0 mi NNW 17.3 mph 24.2 mph N/A   Unknown
2:15 PM 30.2 °F 19.8 °F 19.4 °F 64% 29.96 in 10.0 mi NNW 13.8 mph 20.7 mph N/A   Unknown
2:35 PM 30.2 °F 19.3 °F 17.6 °F 60% 29.97 in 10.0 mi NW 15.0 mph 20.7 mph N/A   Unknown
2:55 PM 30.2 °F 18.9 °F 17.6 °F 60% 29.97 in 10.0 mi NNW 16.1 mph 21.9 mph N/A   Unknown
3:15 PM 30.2 °F 20.8 °F 17.6 °F 60% 29.98 in 10.0 mi NNW 11.5 mph - N/A   Unknown
3:35 PM 28.4 °F 18.0 °F 17.6 °F 64% 29.99 in 10.0 mi NW 12.7 mph - N/A   Unknown
3:55 PM 28.4 °F 18.5 °F 17.6 °F 64% 30.01 in 10.0 mi NW 11.5 mph - N/A   Unknown
4:15 PM 26.6 °F 17.5 °F 17.6 °F 69% 30.02 in 10.0 mi NNW 9.2 mph - N/A   Unknown
4:35 PM 26.6 °F 17.5 °F 17.6 °F 69% 30.02 in 10.0 mi NNW 9.2 mph - N/A   Unknown
4:55 PM 24.8 °F 19.1 °F 15.8 °F 69% 30.01 in 10.0 mi North 4.6 mph - N/A   Unknown
5:15 PM 24.8 °F 17.9 °F 15.8 °F 69% 30.01 in 10.0 mi NNW 5.8 mph - N/A   Unknown
5:55 PM 24.8 °F 16.9 °F 15.8 °F 69% 30.03 in 10.0 mi NW 6.9 mph - N/A   Unknown
6:15 PM 24.8 °F 17.9 °F 15.8 °F 69% 30.03 in 10.0 mi NW 5.8 mph - N/A   Unknown
6:35 PM 23.0 °F 15.8 °F 15.8 °F 74% 30.04 in 10.0 mi NW 5.8 mph - N/A   Unknown
6:55 PM 23.0 °F - 15.8 °F 74% 30.03 in 10.0 mi Calm Calm - N/A   Unknown
7:15 PM 23.0 °F - 15.8 °F 74% 30.03 in 10.0 mi Calm Calm - N/A   Unknown
7:35 PM 23.0 °F - 15.8 °F 74% 30.02 in 10.0 mi Calm Calm - N/A   Unknown
8:15 PM 21.2 °F - 15.8 °F 80% 30.01 in 10.0 mi Calm Calm - N/A   Unknown
8:35 PM 21.2 °F - 15.8 °F 80% 30.02 in 10.0 mi Calm Calm - N/A   Unknown
8:55 PM 21.2 °F 14.9 °F 15.8 °F 80% 30.02 in 10.0 mi NNW 4.6 mph - N/A   Unknown
9:15 PM 23.0 °F 18.4 °F 15.8 °F 74% 30.02 in 10.0 mi North 3.5 mph - N/A   Unknown
9:35 PM 21.2 °F 16.4 °F 15.8 °F 80% 30.02 in 10.0 mi North 3.5 mph - N/A   Unknown
9:55 PM 21.2 °F 16.4 °F 15.8 °F 80% 30.02 in 10.0 mi North 3.5 mph - N/A   Unknown
10:15 PM 21.2 °F - 15.8 °F 80% 30.02 in 10.0 mi Calm Calm - N/A   Unknown
10:35 PM 23.0 °F - 15.8 °F 74% 30.03 in 10.0 mi Calm Calm - N/A   Unknown
10:55 PM 21.2 °F - 15.8 °F 80% 30.02 in 10.0 mi Calm Calm - N/A   Unknown
11:15 PM 21.2 °F - 15.8 °F 80% 30.02 in 10.0 mi Calm Calm - N/A   Unknown
11:35 PM 21.2 °F - 15.8 °F 80% 30.02 in 10.0 mi Calm Calm - N/A   Unknown
11:55 PM 21.2 °F - 15.8 °F 80% 30.03 in 10.0 mi Calm Calm - N/A   Unknown